Available Load Listing

Click here to view advanced filters and to manage your preferences
Use the boxes above the column to filter results. Clicking the heading will sort
Load# Call Available Origin City State Destination City State Dlv Dt Equip
LID2530042 847-463-5128 2017-09-11 GRAND SALINE TX SWEETWATER TX 2017-09-11 FD
LID2543837-3 937-827-0198 2017-09-13 LAFAYETTE IN DUNCANVILLE TX 2017-09-15 PWR
LID2543837-4 937-827-0198 2017-09-13 LAFAYETTE IN DUNCANVILLE TX 2017-09-15 PWR
LID2543837-2 937-827-0198 2017-09-13 LAFAYETTE IN DUNCANVILLE TX 2017-09-15 PWR
BN7364029 8558407891 2017-09-14 GRAMBLING LA PORT ARTHUR TX 2017-09-15 V
LID2543837-1 937-827-0198 2017-09-18 LAFAYETTE IN DUNCANVILLE TX 2017-09-20 PWR
LID2518923 360-682-5640 2017-09-19 MADILL OK SAN ANTONIO TX 2017-09-20 F
LID2553029 504-210-8545 2017-09-19 MONTOURSVILLE PA HOUSTON TX 2017-09-21 V
LID2553732 937-827-0198 2017-09-19 LA PORTE TX DALLAS TX 2017-09-20 FD
LID2543837-5 937-827-0198 2017-09-19 LAFAYETTE IN DUNCANVILLE TX 2017-09-20 PWR
LID2546806 360-682-5640 2017-09-19 MADILL OK CEDAR PARK TX 2017-09-20 F
LID2518499 360-682-5640 2017-09-19 MADILL OK SAN ANTONIO TX 2017-09-20 F
LID2553015 504-210-8545 2017-09-19 MONTOURSVILLE PA HOUSTON TX 2017-09-21 V
LID2553608 360-682-5640 2017-09-19 MADILL OK PHARR TX 2017-09-21 FD
LID2517803 360-682-5640 2017-09-19 MADILL OK LLANO TX 2017-09-20 FD
LID2553481 360-682-5640 2017-09-19 MADILL OK AUSTIN TX 2017-09-20 FD
LID2529827-5 937-827-0200 2017-09-20 HARVEY IL ODESSA TX 2017-09-22 F
LID2554722 360-682-5640 2017-09-20 MADILL OK EDINBURG TX 2017-09-21 F
LID2554650 360-682-5640 2017-09-20 MADILL OK VICTORIA TX 2017-09-21 FD
LID2554754 360-682-5640 2017-09-20 MADILL OK AUSTIN TX 2017-09-21 FD
LID2555297 866-234-1434 2017-09-20 MULLINVILLE KS MADISONVILLE TX 2017-09-21 FD
LID2555965 360-682-5640 2017-09-20 MADILL OK STEPHENVILLE TX 2017-09-21 FD
LID2529827-6 937-827-0200 2017-09-20 HARVEY IL ODESSA TX 2017-09-22 F
LID2553669 937-827-0198 2017-09-20 LA PORTE TX DALLAS TX 2017-09-21 FD
LID2554692 360-682-5640 2017-09-20 MADILL OK MONAHANS TX 2017-09-21 FD
LID2553476 360-682-5640 2017-09-20 MADILL OK AUSTIN TX 2017-09-21 V
LID2457417 360-682-5640 2017-09-20 MADILL OK CONROE TX 2017-09-21 FD
LID2555302 866-234-1434 2017-09-21 MULLINVILLE KS MADISONVILLE TX 2017-09-22 FD
LID2546315-4 937-827-0200 2017-09-21 ARCHBOLD OH FARMERS BRANCH TX 2017-09-25 F
LID2557314 937-827-0198 2017-09-21 Laredo TX YOAKUM TX 2017-09-22 V
LID2529827-7 937-827-0200 2017-09-21 HARVEY IL ODESSA TX 2017-09-25 F
LID2551350 603-200-0050 2017-09-21 SAN DIEGO CA AUSTIN TX 2017-09-25 PWR
LID2555039 360-682-5640 2017-09-21 NORMAN OK HOUSTON TX 2017-09-22 V
LID2556792 855-494-2049 2017-09-21 LEEDS AL CHANNELVIEW TX 2017-09-22 F
LID2555820 336-308-2028 2017-09-21 GRAND RAPIDS MI DALLAS TX 2017-09-25 VZ
LID2556100 844-619-9572 2017-09-21 Dawson MN LAREDO TX 2017-09-25 V
LID2329790 360-682-5640 2017-09-21 MADILL OK CONROE TX 2017-09-22 FD
LID2556781-1 855-494-2049 2017-09-21 LEEDS AL CORRIGAN TX 2017-09-22 F
LID2559704 937-827-0197 2017-09-21 SCHERTZ TX EL PASO TX 2017-09-21 V
LID2518239 360-682-5640 2017-09-21 NORMAN OK HOUSTON TX 2017-09-22 V
LID2556682 404-602-9292 2017-09-21 LEBANON IN TERRELL TX 2017-09-24 RT
LID2555549 360-682-5640 2017-09-21 MADILL OK HOUSTON TX 2017-09-22 V
LID2559718 937-827-0198 2017-09-22 LAKE CHARLES LA CROSS ROADS TX 2017-09-25 PWR
LID2558860 404-602-9292 2017-09-22 WEST LIBERTY IA LAREDO TX 2017-09-25 RT
LID2559560 479-725-4424 2017-09-22 IRWINDALE CA HOUSTON TX 2017-09-25 FD
LID2559834 336-822-7860 2017-09-22 LONG BEACH CA MC CAMEY TX 2017-09-25 VR
LID2558547 844-373-5795 2017-09-22 IRVINE CA TEMPLE TX 2017-09-25 V
LID2554784 937-827-0198 2017-09-22 SUFFOLK VA DAYTON TX 2017-09-25 V
LID2559659 619-954-0037 2017-09-22 FOLEY AL SAN MARCOS TX 2017-09-22 V
LID2559378 937-827-0199 2017-09-22 FAIRVIEW PA FORT WORTH TX 2017-09-25 V
LID2554018 937-827-0198 2017-09-22 SUFFOLK VA SANGER TX 2017-09-25 V
LID2557069 937-827-0199 2017-09-22 CLEVELAND OH FORT WORTH TX 2017-09-25 FD
LID2540713 844-373-5795 2017-09-22 HANFORD CA PHARR TX 2017-09-26 V
LID2559596 314-401-6863 2017-09-22 EVANS GA LA PORTE TX 2017-09-25 V
LID2558736 843-410-1279 2017-09-22 KANSAS CITY MO PLAINVIEW TX 2017-09-25 V
LID2559830 336-822-7860 2017-09-22 LONG BEACH CA MC CAMEY TX 2017-09-25 VR
LID2559166 937-827-0198 2017-09-22 YOAKUM TX BOWIE TX 2017-09-23 V
LID2557027 360-682-5640 2017-09-22 MADILL OK CONROE TX 2017-09-25 FD
LID2557489 479-203-5234 2017-09-22 La Porte TX HOUSTON TX 2017-09-22 V
LID2529827-10 937-827-0200 2017-09-22 HARVEY IL ODESSA TX 2017-09-25 F
LID2556928 844-619-9572 2017-09-22 Dawson MN Laredo TX 2017-09-25 V
LID2559816 336-822-7860 2017-09-22 LONG BEACH CA MC CAMEY TX 2017-09-25 VR
LID2558533 844-373-5795 2017-09-22 IRVINE CA TEMPLE TX 2017-09-25 V
LID2555356 844-619-9572 2017-09-22 Dawson MN Laredo TX 2017-09-25 V
LID2557193 844-721-4002 2017-09-22 KENT WA HOUSTON TX 2017-09-28 V
LID2555276 937-827-0198 2017-09-22 Effingham SC HUNTSVILLE TX 2017-09-25 VR
LID2557071 937-827-0199 2017-09-22 CLEVELAND OH FORT WORTH TX 2017-09-25 FD
LID2559591 314-401-6863 2017-09-22 EVANS GA LA PORTE TX 2017-09-25 V
LID2529827-9 937-827-0200 2017-09-22 HARVEY IL ODESSA TX 2017-09-25 F
LID2558027 855-494-2049 2017-09-22 GRAND PRAIRIE TX KATY TX 2017-09-25 V
LID2557263 888-285-4514 2017-09-22 GRAND PRAIRIE TX DALLAS TX 2017-09-25 V
LID2557264 888-285-4514 2017-09-22 GRAND PRAIRIE TX DALLAS TX 2017-09-25 V
LID2555279 937-827-0198 2017-09-22 Effingham SC HUNTSVILLE TX 2017-09-25 VR
LID2558958 855-494-2049 2017-09-22 TYLER TX KATY TX 2017-09-25 V
LID2558098 844-373-5795 2017-09-22 IRVINE CA LUFKIN TX 2017-09-25 V
LID2555009 844-619-9572 2017-09-22 Houston TX Hereford TX 2017-09-22 V
LID2559186 937-827-0198 2017-09-22 Harrisonville MO BOWIE TX 2017-09-25 V
LID2558117 844-373-5795 2017-09-22 IRVINE CA HOUSTON TX 2017-09-25 V
LID2559595 314-401-6863 2017-09-22 EVANS GA LA PORTE TX 2017-09-25 V
LID2559455 314-401-6863 2017-09-22 EVANS GA LA PORTE TX 2017-09-25 V
LID2536929 479-203-5234 2017-09-22 Boron CA KATY TX 2017-09-25 V
LID2553686 843-410-1279 2017-09-22 Greenville MS MOODY TX 2017-09-25 V
LID2556673 708-332-0526 2017-09-22 CAMBRIDGE OH DALLAS TX 2017-09-25 V
LID2559592 314-401-6863 2017-09-22 EVANS GA LA PORTE TX 2017-09-25 V
LID2557608 844-619-9572 2017-09-22 DAWSON MN Laredo TX 2017-09-25 V
LID2557746 844-619-9572 2017-09-22 SEATTLE WA CONROE TX 2017-09-25 VR
LID2559828 336-822-7860 2017-09-22 LONG BEACH CA MC CAMEY TX 2017-09-25 VR
LID2556328 937-827-0199 2017-09-22 CORRY PA FORT WORTH TX 2017-09-25 FD
LID2542700 800-500-4915 2017-09-22 WEST CHESTER OH HUTCHINS TX 2017-09-25 VR
LID2558128 844-373-5795 2017-09-22 IRVINE CA HOUSTON TX 2017-09-25 V
LID2557068 937-827-0199 2017-09-22 CLEVELAND OH FORT WORTH TX 2017-09-25 FD
LID2559835 336-822-7860 2017-09-22 LONG BEACH CA MC CAMEY TX 2017-09-25 VR
LID2556675 855-494-2048 2017-09-23 FORT WORTH TX CANYON TX 2017-09-25 F
LID2559735 844-619-9572 2017-09-23 YUMA AZ El Paso TX 2017-09-24 V
LID2558606 888-285-4514 2017-09-23 SANTA ANA CA TEMPLE TX 2017-09-26 V
LID2556722 855-494-2048 2017-09-23 FORT WORTH TX GALVESTON TX 2017-09-25 F
LID2559737 844-619-9572 2017-09-23 YUMA AZ El Paso TX 2017-09-24 V
LID2556649 855-494-2048 2017-09-23 FORT WORTH TX CANYON TX 2017-09-25 F
LID2550554 844-797-8189 2017-09-23 CLEVELAND OH TEXARKANA TX 2017-09-23 V
LID2559606 847-463-5128 2017-09-24 SPRINGDALE AR HOUSTON TX 2017-09-30 V
LID2553795 479-203-5523 2017-09-24 GREENWOOD IN LEWISVILLE TX 2017-09-25 V
LID2559803 847-463-5128 2017-09-25 DEFOREST WI GRAPEVINE TX 2017-09-27 F
LID2557408 844-619-9572 2017-09-25 Navasota TX PILOT POINT TX 2017-09-26 V
LID2559594 847-463-5128 2017-09-25 COVINGTON TN HOUSTON TX 2017-09-27 V
LID2557937 855-494-2049 2017-09-25 SOUTH BOSTON VA FORT WORTH TX 2017-09-27 F
LID2558425 800-766-6870 2017-09-25 CARSON CA SAN ANTONIO TX 2017-09-28 VR
LID2555296 937-827-0198 2017-09-25 Effingham SC HUNTSVILLE TX 2017-09-28 VR
LID2559805 844-619-9572 2017-09-25 NAVASOTA TX Schertz TX 2017-09-26 V
LID2559419 844-619-9572 2017-09-25 GRAND RAPIDS MI LAREDO TX 2017-09-28 CN
LID2554048 855-494-2048 2017-09-25 Dallas TX SPRING TX 2017-09-25 F
LID2501089 479-203-5234 2017-09-25 Wilmington CA ELMENDORF TX 2017-09-28 V
LID2557345 855-494-2048 2017-09-25 Ennis TX LA MARQUE TX 2017-09-26 F
LID2553525 855-494-2048 2017-09-25 Ennis TX HOUSTON TX 2017-09-25 F
LID2551783 910-859-8114 2017-09-25 SHREVEPORT LA LAMESA TX 2017-09-26 V
LID2557932 800-500-4915 2017-09-25 WEST CHESTER OH HUTCHINS TX 2017-09-27 RT
LID2529827-12 937-827-0200 2017-09-25 HARVEY IL ODESSA TX 2017-09-27 F
LID2537608 937-827-0200 2017-09-25 GOSHEN IN HUTCHINS TX 2017-09-27 ARV
LID2557673 855-494-2049 2017-09-25 HOUSTON TX FORT WORTH TX 2017-09-26 VR
LID2558574 843-410-1279 2017-09-25 GOOD HOPE IL WESLACO TX 2017-09-28 V
LID2558757 937-827-0197 2017-09-25 LIVERPOOL NY EL PASO TX 2017-09-29 V
LID2557984 855-494-2048 2017-09-25 Ennis TX KATY TX 2017-09-25 F
LID2554386 844-797-8190 2017-09-25 CARSON CA LANCASTER TX 2017-09-28 V
LID2553526 855-494-2048 2017-09-25 Ennis TX HOUSTON TX 2017-09-25 F
LID2554019 855-494-2048 2017-09-25 DALLAS TX CORPUS CHRISTI TX 2017-09-25 F
LID2557708 855-494-2049 2017-09-25 HOUSTON TX SAN ANTONIO TX 2017-09-26 VR
LID2556921 855-494-2049 2017-09-25 PITTSBORO IN HOUSTON TX 2017-09-28 F
LID2557994 855-494-2048 2017-09-26 Ennis TX HOUSTON TX 2017-09-26 F
LID2559855-1 937-827-0200 2017-09-26 ARCHBOLD OH FARMERS BRANCH TX 2017-09-28 F
LID2557893 800-500-4915 2017-09-26 COLUMBUS OH DALLAS TX 2017-09-28 RT
LID2542967 855-494-2048 2017-09-26 ENNIS TX AMARILLO TX 2017-09-27 F
LID2558141 800-500-4915 2017-09-26 CASA GRANDE AZ HOUSTON TX 2017-09-28 V
LID2554403 336-310-0327 2017-09-26 Foley AL LAREDO TX 2017-09-28 V
LID2559507 844-619-9572 2017-09-26 GRAND RAPIDS MI LAREDO TX 2017-10-02 CN
LID2557600 844-797-8188 2017-09-26 BALTIMORE MD LAREDO TX 2017-09-29 V
LID2555372-1 937-827-0200 2017-09-26 GOSHEN IN HUTCHINS TX 2017-09-28 ARV
LID2557995 855-494-2048 2017-09-26 Ennis TX HOUSTON TX 2017-09-26 F
LID2557993 855-494-2048 2017-09-26 Ennis TX HOUSTON TX 2017-09-26 F
LID2553533 855-494-2048 2017-09-26 Ennis TX HOUSTON TX 2017-09-26 F
LID2559479 844-619-9572 2017-09-26 GRAND RAPIDS MI LAREDO TX 2017-10-02 CN
LID2557353 855-494-2048 2017-09-26 Ennis TX LA MARQUE TX 2017-09-27 F
LID2556923 855-494-2049 2017-09-26 PITTSBORO IN HOUSTON TX 2017-09-29 F
LID2553534 855-494-2048 2017-09-26 Ennis TX HOUSTON TX 2017-09-26 F
LID2553031 336-308-2028 2017-09-26 CONWAY AR DALLAS TX 2017-09-27 V
LID2557352 855-494-2048 2017-09-26 Ennis TX LA MARQUE TX 2017-09-27 F
LID2552866 847-463-5128 2017-09-26 GRAND SALINE TX ODESSA TX 2017-09-27 FD
LID2553524 855-494-2048 2017-09-26 Ennis TX HOUSTON TX 2017-09-26 F
LID2556780 844-797-8188 2017-09-26 MARSHVILLE NC SAN ANTONIO TX 2017-09-28 RT
LID2529827-14 937-827-0200 2017-09-26 HARVEY IL ODESSA TX 2017-09-28 F
LID2559808 336-474-9240 2017-09-27 EL PASO TX HASLET TX 2017-09-27 ARV
LID2553789 479-203-5523 2017-09-27 GREENWOOD IN GRAND PRAIRIE TX 2017-09-29 V
LID2555372-2 937-827-0200 2017-09-27 GOSHEN IN HUTCHINS TX 2017-09-29 ARV
LID2559188 855-494-2048 2017-09-27 Ennis TX HOUSTON TX 2017-09-27 F
LID2557996 855-494-2048 2017-09-27 Ennis TX HOUSTON TX 2017-09-27 F
LID2557355 855-494-2048 2017-09-27 Ennis TX LA MARQUE TX 2017-09-28 F
LID2553804 479-203-5523 2017-09-27 GREENWOOD IN PLANO TX 2017-09-29 V
LID2559855-2 937-827-0200 2017-09-27 ARCHBOLD OH FARMERS BRANCH TX 2017-09-29 F
LID2553792 479-203-5523 2017-09-27 GREENWOOD IN IRVING TX 2017-09-29 V
LID2559798 336-474-9240 2017-09-27 EL PASO TX HASLET TX 2017-09-27 ARV
LID2559807 336-474-9240 2017-09-27 EL PASO TX HASLET TX 2017-09-27 ARV
LID2529827-16 937-827-0200 2017-09-27 HARVEY IL ODESSA TX 2017-09-29 F
LID2555372-3 937-827-0200 2017-09-28 GOSHEN IN HUTCHINS TX 2017-10-02 ARV
LID2533012 855-494-2048 2017-09-28 DALLAS TX SAN ANTONIO TX 2017-09-29 F
LID2556905 937-827-0199 2017-09-28 HANOVER PARK IL LAREDO TX 2017-10-02 V
LID2529827-17 937-827-0200 2017-09-28 HARVEY IL ODESSA TX 2017-10-02 F
LID2529827-18 937-827-0200 2017-09-28 HARVEY IL ODESSA TX 2017-10-02 F
LID2559190 855-494-2048 2017-09-28 Ennis TX HOUSTON TX 2017-09-28 F
LID2557728 844-797-8190 2017-09-29 SEALY TX SAN ANTONIO TX 2017-09-29 RT
LID2559855-3 937-827-0200 2017-09-29 ARCHBOLD OH FARMERS BRANCH TX 2017-10-02 F
LID2556919 855-494-2049 2017-09-29 PITTSBORO IN HOUSTON TX 2017-10-02
LID2558782 336-310-0327 2017-10-02 Cantonment FL FORT WORTH TX 2017-10-04 V
LID2551745 866-637-8600 2017-10-04 HOUSTON TX MESQUITE TX 2017-10-05 V
LID2508073 479-203-5234 2017-10-10 Boron CA PLEASANTON TX 2017-10-10 BK
LID2557478 479-203-5234 2017-10-10 Boron CA PLEASANTON TX 2017-10-10 BK
LID2557479 479-203-5234 2017-10-17 Boron CA PLEASANTON TX 2017-10-17 BK
LID2501088 479-203-5234 2017-10-23 Wilmington CA ELMENDORF TX 2017-10-23 V
LID2557481 479-203-5234 2017-10-24 Boron CA PLEASANTON TX 2017-10-24 BK
LID2481494 844-797-8190 2017-10-31 TRANSFER PA Houston TX 2017-11-02 V
LID2557477 479-203-5234 2017-10-31 Boron CA PLEASANTON TX 2017-10-31 BK
LID2557480 479-203-5234 2017-11-07 Boron CA PLEASANTON TX 2017-11-07 BK
LID2501113 479-203-5234 2017-11-17 Wilmington CA ELMENDORF TX 2017-11-17 V
LID2501115 479-203-5234 2017-12-18 Wilmington CA ELMENDORF TX 2017-12-18 V
LID2413913 844-797-8188 2017-12-31 Houston TX Denton TX 2018-01-01 V
LID2413848 844-797-8188 2017-12-31 Missouri City TX Denton TX 2018-01-01 V
LID2335224 844-797-8188 2017-12-31 DALLAS TX Denton TX 2017-12-31 V
LID2309682 844-797-8188 2017-12-31 DALLAS TX Denton TX 2017-12-31 V
LID2309675 844-797-8188 2017-12-31 DALLAS TX Denton TX 2017-12-31 V